• Join FlightAware (Why Join?)
  • Login
  • US Flag 
04:51PM EDT


 

Airport Tracker/Info


-or-


 

Live Flight TrackerFlight Track Log ✈ GJS6206 ✈ 06-Apr-2013 ✈ KDTW - KSTL

Flight Track Log - Related Links

Times and Time Zones

All times are in EDT time to prevent confusion due to time zone crossing. See the GJS6206 flight status page for this flight to view local times or setup timezone preferences in your user account.

Time Position Orientation Groundspeed Altitude Reporting Facility
EDT Latitude Longitude Course Direction KTS MPH feet Rate Location/Type
08:30PM 42.2036 -83.3556 216° Southwest 157 181 1,400  Level Cleveland Center
08:31PM 42.1653 -83.3931 216° Southwest 186 214 4,400 2,760 Climbing Cleveland Center
08:33PM 42.0675 -83.4697 210° Southwest 237 273 9,800 2,400 Climbing Cleveland Center
08:34PM 42.0036 -83.5200 210° Southwest 258 297 11,700 2,280 Climbing Cleveland Center
08:35PM 41.9247 -83.5861 212° Southwest 290 334 14,400 2,100 Climbing Cleveland Center
08:36PM 41.8500 -83.6497 212° Southwest 310 357 15,900 1,380 Climbing Cleveland Center
08:37PM 41.7650 -83.7181 211° Southwest 336 387 17,200 1,380 Climbing Cleveland Center
08:38PM 41.6753 -83.7942 212° Southwest 369 425 18,700 1,500 Climbing Cleveland Center
08:39PM 41.5833 -83.8703 212° Southwest 389 448 20,200 1,380 Climbing Cleveland Center
08:40PM 41.4853 -83.9483 211° Southwest 402 463 21,500 1,200 Climbing Cleveland Center
08:41PM 41.3892 -84.0264 211° Southwest 407 468 22,700 1,140 Climbing Cleveland Center
08:42PM 41.2994 -84.0964 210° Southwest 414 476 23,800 1,080 Climbing Cleveland Center
08:43PM 41.2547 -84.1689 231° Southwest 419 482 24,600 1,260 Climbing Chicago Center
08:44PM 41.2281 -84.3489 259° West 412 474 26,000 1,260 Climbing Chicago Center
08:45PM 41.2039 -84.5019 258° West 420 483 27,200 1,140 Climbing Chicago Center
08:46PM 41.1814 -84.6531 259° West 418 481 28,400 1,080 Climbing Chicago Center
08:47PM 41.1581 -84.8036 258° West 416 479 29,500 900 Climbing Chicago Center
08:48PM 41.1344 -84.9558 258° West 419 482 30,300 780 Climbing Chicago Center
08:49PM 41.1092 -85.1119 258° West 426 490 31,100 780 Climbing Chicago Center
08:50PM 41.0844 -85.2658 258° West 427 491 31,900 900 Climbing Chicago Center
08:51PM 41.0611 -85.4186 259° West 425 489 33,000 960 Climbing Chicago Center
08:52PM 41.0378 -85.5733 259° West 425 489 33,900 480 Climbing Chicago Center
08:53PM 41.0094 -85.7242 256° West 425 489 34,000  Climbing Chicago Center
08:54PM 40.9825 -85.8825 257° West 432 497 34,000  Level Chicago Center
08:55PM 40.9583 -86.0356 258° West 430 495 34,000  Level Chicago Center
08:56PM 40.9278 -86.2144 257° West 420 483 34,000  Level Chicago Center
08:57PM 40.9028 -86.3642 258° West 417 480 34,000  Level Chicago Center
08:58PM 40.8764 -86.5128 257° West 417 480 34,000  Level Chicago Center
08:59PM 40.8497 -86.6644 257° West 424 488 34,000  Level Chicago Center
09:00PM 40.8261 -86.8103 258° West 423 487 34,000  Level Chicago Center
09:01PM 40.8006 -86.9594 257° West 419 482 34,000  Level Chicago Center
09:02PM 40.7694 -87.1375 257° West 417 480 34,000 -60 Level Chicago Center
09:03PM 40.7103 -87.2678 239° Southwest 413 475 33,900 -540 Descending Chicago Center
09:04PM 40.6442 -87.3878 234° Southwest 407 468 32,900 -1,020 Descending Chicago Center
09:05PM 40.5778 -87.5103 235° Southwest 410 472 31,900 -1,020 Descending Chicago Center
09:06PM 40.5111 -87.6314 234° Southwest 411 473 30,900 -1,020 Descending Chicago Center
09:07PM 40.4422 -87.7536 234° Southwest 416 479 29,900 -1,020 Descending Chicago Center
09:08PM 40.3739 -87.8775 234° Southwest 419 482 28,900 -960 Descending Chicago Center
09:09PM 40.3108 -87.9936 235° Southwest 399 459 28,000 -480 Descending Chicago Center
09:10PM 40.2450 -88.1097 233° Southwest 396 456 28,000  Level Chicago Center
09:11PM 40.1703 -88.2361 232° Southwest 403 464 28,000  Level Chicago Center
09:12PM 40.1028 -88.3581 234° Southwest 411 473 28,000  Level Chicago Center
09:13PM 40.0481 -88.4114 217° Southwest 415 478 28,000  Level Kansas City Center
09:14PM 39.9358 -88.4642 200° South 427 491 28,000  Level Kansas City Center
09:15PM 39.8233 -88.5192 201° Southwest 430 495 28,000  Level Kansas City Center
09:16PM 39.7092 -88.5742 200° South 433 498 28,000  Level Kansas City Center
09:17PM 39.5961 -88.6292 201° Southwest 434 499 28,000  Level Kansas City Center
09:18PM 39.5194 -88.7347 227° Southwest 412 474 28,000 -540 Level Kansas City Center
09:19PM 39.4606 -88.8586 238° Southwest 402 463 27,000 -1,500 Descending Kansas City Center
09:20PM 39.4022 -88.9831 239° Southwest 402 463 24,900 -2,100 Descending Kansas City Center
09:21PM 39.3453 -89.1083 240° Southwest 403 464 22,800 -2,100 Descending Kansas City Center
09:22PM 39.2903 -89.2317 240° Southwest 401 461 20,700 -2,040 Descending Kansas City Center
09:23PM 39.2375 -89.3467 239° Southwest 389 448 18,600 -2,520 Descending Kansas City Center
09:24PM 39.1856 -89.3956 216° Southwest 351 404 16,300 -2,400 Descending FAA TRACON SMA TRACON (SMA)
09:24PM 39.1706 -89.4281 239° Southwest 347 399 16,100 -480 Descending FAA TRACON SMA TRACON (SMA)
09:24PM 39.1547 -89.4622 239° Southwest 354 407 16,000 -180 Descending FAA TRACON SMA TRACON (SMA)
09:25PM 39.1328 -89.5031 235° Southwest 358 412 16,000  Level FAA TRACON SMA TRACON (SMA)
09:25PM 39.1169 -89.5369 239° Southwest 361 415 16,000 -180 Level FAA TRACON SMA TRACON (SMA)
09:25PM 39.1011 -89.5692 238° Southwest 353 406 15,900 -1,380 Descending FAA TRACON SMA TRACON (SMA)
09:26PM 39.0822 -89.6075 238° Southwest 332 382 15,100 -2,100 Descending FAA TRACON SMA TRACON (SMA)
09:26PM 39.0672 -89.6372 237° Southwest 323 372 14,500 -1,620 Descending FAA TRACON SMA TRACON (SMA)
09:26PM 39.0531 -89.6683 240° Southwest 323 372 14,000 -1,740 Descending FAA TRACON SMA TRACON (SMA)
09:27PM 39.0342 -89.7067 238° Southwest 330 380 13,400 -1,500 Descending FAA TRACON SMA TRACON (SMA)
09:27PM 39.0192 -89.7381 238° Southwest 334 384 13,000 -1,320 Descending FAA TRACON SMA TRACON (SMA)
09:27PM 39.0028 -89.7697 236° Southwest 342 394 12,500 -1,740 Descending FAA TRACON SMA TRACON (SMA)
09:28PM 38.9825 -89.8106 237° Southwest 351 404 11,900 -1,500 Descending FAA TRACON SMA TRACON (SMA)
09:28PM 38.9669 -89.8436 239° Southwest 352 405 11,500 -1,320 Descending FAA TRACON SMA TRACON (SMA)
09:28PM 38.9519 -89.8758 239° Southwest 346 398 11,000 -1,740 Descending FAA TRACON SMA TRACON (SMA)
09:29PM 38.9369 -89.9183 246° West 342 394 10,400 -1,380 Descending FAA TRACON SMA TRACON (SMA)
09:29PM 38.9283 -89.9533 252° West 336 387 10,100 -600 Descending FAA TRACON SMA TRACON (SMA)
09:29PM 38.9194 -89.9872 251° West 329 379 10,000 -360 Descending FAA TRACON SMA TRACON (SMA)
09:30PM 38.9100 -90.0269 253° West 307 353 9,900 -180 Descending FAA TRACON SMA TRACON (SMA)
09:30PM 38.9025 -90.0553 251° West 279 321 9,900 -780 Level FAA TRACON SMA TRACON (SMA)
09:30PM 38.8958 -90.0811 252° West 256 295 9,400 -1,740 Descending FAA TRACON SMA TRACON (SMA)
09:31PM 38.8892 -90.1136 255° West 245 282 8,800 -1,380 Descending FAA TRACON SMA TRACON (SMA)
09:31PM 38.8886 -90.1383 268° West 230 265 8,500 -900 Descending FAA TRACON SMA TRACON (SMA)
09:31PM 38.8886 -90.1614 270° West 216 249 8,200 -1,080 Descending FAA TRACON SMA TRACON (SMA)
09:32PM 38.8892 -90.1889 271° West 200 230 7,800 -1,080 Descending FAA TRACON SMA TRACON (SMA)
09:32PM 38.8897 -90.2092 272° West 190 219 7,500 -1,200 Descending FAA TRACON SMA TRACON (SMA)
09:32PM 38.8906 -90.2297 273° West 186 214 7,000 -1,740 Descending FAA TRACON SMA TRACON (SMA)
09:33PM 38.8914 -90.2558 272° West 190 219 6,400 -1,500 Descending FAA TRACON SMA TRACON (SMA)
09:33PM 38.8922 -90.2775 273° West 195 224 6,000 -1,080 Descending FAA TRACON SMA TRACON (SMA)
09:33PM 38.8928 -90.2983 272° West 191 220 5,700 -1,260 Descending FAA TRACON SMA TRACON (SMA)
09:34PM 38.8942 -90.3242 274° West 189 217 5,200 -1,320 Descending FAA TRACON SMA TRACON (SMA)
09:34PM 38.8953 -90.3450 274° West 189 217 4,800 -1,200 Descending FAA TRACON SMA TRACON (SMA)
09:34PM 38.8967 -90.3656 275° West 188 216 4,400 -1,260 Descending FAA TRACON SMA TRACON (SMA)
09:35PM 38.8975 -90.3908 272° West 187 215 4,000 -600 Descending FAA TRACON SMA TRACON (SMA)
09:35PM 38.8881 -90.4050 229° Southwest 187 215 4,000 -600 Level FAA TRACON SMA TRACON (SMA)
09:35PM 38.8717 -90.4150 205° Southwest 172 198 3,600 -1,260 Descending FAA TRACON SMA TRACON (SMA)
09:36PM 38.8583 -90.4228 204° Southwest 171 197 3,200 -1,200 Descending FAA TRACON SMA TRACON (SMA)
09:36PM 38.8450 -90.4300 203° Southwest 168 193 2,800 -900 Descending FAA TRACON SMA TRACON (SMA)
09:36PM 38.8297 -90.4353 195° South 153 176 2,600 -480 Descending FAA TRACON SMA TRACON (SMA)
09:37PM 38.8169 -90.4344 177° South 151 174 2,500 -300 Descending FAA TRACON SMA TRACON (SMA)
09:37PM 38.8053 -90.4267 153° Southeast 156 180 2,400 -600 Descending FAA TRACON SMA TRACON (SMA)
09:37PM 38.7939 -90.4111 133° Southeast 155 178 2,100 -780 Descending FAA TRACON SMA TRACON (SMA)
09:38PM 38.7867 -90.3992 128° Southeast 142 163 1,900 -780 Descending FAA TRACON SMA TRACON (SMA)
09:38PM 38.7803 -90.3864 123° Southeast 138 159 1,600 -780 Descending FAA TRACON SMA TRACON (SMA)
09:38PM 38.7719 -90.3708 124° Southeast 137 158 1,400 -660 Descending FAA TRACON SMA TRACON (SMA)
09:39PM 38.7661 -90.3586 121° Southeast 134 154 1,200 -600 Descending FAA TRACON SMA TRACON (SMA)
09:39PM 38.7597 -90.3464 124° Southeast 131 151 1,000 -600 Descending FAA TRACON SMA TRACON (SMA)
09:39PM 38.7539 -90.3344 122° Southeast 131 151 800 -660 Descending FAA TRACON SMA TRACON (SMA)
09:40PM 38.7494 -90.3250 121° Southeast 132 152 600 -600 Descending FAA TRACON SMA TRACON (SMA)